createdAt,value
2023-04-01T00:00:31.396Z,232.50
2023-04-01T00:01:31.390Z,461.50
2023-04-01T00:02:31.482Z,429.40
2023-04-01T00:03:31.532Z,82.00
2023-04-01T00:04:31.520Z,558.30
2023-04-01T00:05:31.563Z,164.70
2023-04-01T00:06:31.321Z,253.90
2023-04-01T00:07:31.318Z,422.20
2023-04-01T00:08:31.309Z,451.80
2023-04-01T00:09:31.330Z,145.80
2023-04-01T00:10:31.288Z,112.50
2023-04-01T00:11:31.294Z,427.10
2023-04-01T00:12:31.240Z,395.50
2023-04-01T00:13:31.258Z,119.40
2023-04-01T00:14:31.273Z,170.90
2023-04-01T00:15:31.538Z,498.80
2023-04-01T00:16:31.265Z,240.80
2023-04-01T00:17:31.220Z,97.70
2023-04-01T00:18:31.192Z,246.00
2023-04-01T00:19:31.217Z,505.60
2023-04-01T00:20:31.162Z,147.40
2023-04-01T00:21:31.167Z,98.60
2023-04-01T00:22:31.153Z,150.10
2023-04-01T00:23:31.148Z,482.80
2023-04-01T00:24:31.148Z,185.50
2023-04-01T00:25:31.537Z,115.30
2023-04-01T00:26:31.119Z,107.30
2023-04-01T00:27:31.100Z,494.60
2023-04-01T00:28:31.086Z,112.50
2023-04-01T00:29:31.090Z,184.60
2023-04-01T00:30:31.052Z,465.20
2023-04-01T00:31:31.111Z,232.70
2023-04-01T00:32:31.049Z,99.30
2023-04-01T00:33:31.029Z,181.30
2023-04-01T00:34:31.052Z,505.10
2023-04-01T00:35:31.270Z,237.20
2023-04-01T00:36:30.991Z,82.50
2023-04-01T00:37:30.987Z,445.70
2023-04-01T00:38:30.970Z,205.60
2023-04-01T00:39:31.003Z,76.10
2023-04-01T00:40:30.947Z,313.20
2023-04-01T00:41:30.945Z,448.20
2023-04-01T00:42:30.918Z,151.40
2023-04-01T00:43:30.902Z,82.60
2023-04-01T00:44:30.961Z,203.70
2023-04-01T00:45:31.183Z,471.60
2023-04-01T00:46:30.878Z,93.70
2023-04-01T00:47:30.927Z,91.00
2023-04-01T00:48:30.873Z,278.90
2023-04-01T00:49:30.860Z,386.60
2023-04-01T00:50:30.872Z,94.10
2023-04-01T00:51:30.831Z,93.50
2023-04-01T00:52:30.812Z,297.90
2023-04-01T00:53:30.811Z,453.30
2023-04-01T00:54:30.792Z,80.90
2023-04-01T00:55:31.028Z,299.70
2023-04-01T00:56:30.772Z,368.10
2023-04-01T00:57:30.816Z,79.10
2023-04-01T00:58:30.793Z,67.90
2023-04-01T01:01:49.675Z,64.00
2023-04-01T01:02:49.642Z,62.60
2023-04-01T01:03:49.536Z,473.60
2023-04-01T01:04:49.533Z,154.40
2023-04-01T01:05:49.999Z,151.40
2023-04-01T01:06:49.489Z,404.50
2023-04-01T01:07:49.533Z,386.60
2023-04-01T01:08:49.479Z,135.90
2023-04-01T01:09:49.484Z,336.50
2023-04-01T01:10:49.448Z,330.70
2023-04-01T01:11:49.449Z,70.00
2023-04-01T01:12:49.475Z,407.50
2023-04-01T01:13:49.434Z,262.70
2023-04-01T01:14:49.393Z,77.70
2023-04-01T01:15:49.405Z,181.40
2023-04-01T01:16:49.418Z,433.90
2023-04-01T01:17:49.450Z,166.10
2023-04-01T01:18:49.355Z,93.00
2023-04-01T01:19:49.499Z,144.60
2023-04-01T01:20:49.335Z,407.30
2023-04-01T01:21:49.339Z,357.80
2023-04-01T01:22:49.344Z,194.20
2023-04-01T01:23:49.305Z,81.70
2023-04-01T01:24:49.297Z,175.40
2023-04-01T01:25:49.296Z,448.50
2023-04-01T01:26:49.270Z,150.30
2023-04-01T01:27:49.301Z,152.90
2023-04-01T01:28:49.261Z,356.00
2023-04-01T01:29:49.246Z,316.50
2023-04-01T01:30:49.246Z,72.90
2023-04-01T01:31:49.233Z,150.80
2023-04-01T01:32:49.281Z,448.80
2023-04-01T01:33:49.190Z,243.90
2023-04-01T01:34:49.166Z,109.90
2023-04-01T01:35:49.205Z,72.30
2023-04-01T01:36:49.123Z,158.30
2023-04-01T01:37:49.163Z,463.70
2023-04-01T01:38:49.119Z,195.70
2023-04-01T01:39:49.124Z,68.70
2023-04-01T01:40:49.102Z,274.80
2023-04-01T01:41:49.090Z,439.30
2023-04-01T01:42:49.132Z,91.30
2023-04-01T01:43:49.069Z,105.50
2023-04-01T01:44:49.073Z,247.70
2023-04-01T01:45:49.067Z,399.60
2023-04-01T01:46:49.090Z,304.10
2023-04-01T01:47:49.082Z,84.80
2023-04-01T01:48:49.002Z,185.40
2023-04-01T01:49:48.999Z,323.20
2023-04-01T01:50:48.976Z,450.20
2023-04-01T01:51:48.971Z,197.40
2023-04-01T01:52:48.997Z,94.80
2023-04-01T01:53:48.956Z,152.70
2023-04-01T01:54:48.930Z,396.40
2023-04-01T01:55:48.942Z,379.10
2023-04-01T01:56:48.938Z,142.60
2023-04-01T01:57:48.939Z,76.10
2023-04-01T01:58:48.889Z,171.90
2023-04-01T01:59:48.887Z,374.10
2023-04-01T02:00:48.883Z,388.00
2023-04-01T02:01:48.881Z,284.80
2023-04-01T02:02:48.937Z,236.20
2023-04-01T02:03:48.858Z,77.90
2023-04-01T02:04:48.893Z,241.60
2023-04-01T02:05:48.806Z,480.90
2023-04-01T02:06:48.802Z,229.30
2023-04-01T02:07:48.825Z,82.80
2023-04-01T02:08:48.776Z,123.00
2023-04-01T02:09:48.789Z,414.10
2023-04-01T02:10:48.747Z,300.80
2023-04-01T02:11:48.744Z,100.40
2023-04-01T02:12:48.768Z,107.40
2023-04-01T02:13:48.725Z,435.70
2023-04-01T02:14:48.703Z,186.00
2023-04-01T02:15:48.753Z,70.40
2023-04-01T02:16:48.678Z,292.10
2023-04-01T02:17:48.747Z,467.00
2023-04-01T02:18:48.656Z,178.90
2023-04-01T02:19:48.657Z,80.30
2023-04-01T02:20:48.635Z,73.40
2023-04-01T02:21:48.624Z,339.20
2023-04-01T02:22:48.661Z,422.10
2023-04-01T02:23:48.602Z,253.20
2023-04-01T02:24:48.586Z,82.10
2023-04-01T02:25:48.570Z,105.80
2023-04-01T02:26:48.570Z,289.30
2023-04-01T02:27:48.603Z,442.20
2023-04-01T02:28:48.541Z,80.00
2023-04-01T02:29:48.531Z,148.80
2023-04-01T02:30:48.544Z,289.00
2023-04-01T02:31:48.594Z,455.30
2023-04-01T02:32:48.620Z,230.00
2023-04-01T02:33:48.478Z,86.10
2023-04-01T02:34:48.477Z,126.10
2023-04-01T02:35:48.448Z,300.20
2023-04-01T02:36:48.469Z,515.10
2023-04-01T02:37:48.491Z,367.40
2023-04-01T02:38:48.439Z,320.10
2023-04-01T02:39:48.422Z,187.20
2023-04-01T02:40:48.428Z,73.20
2023-04-01T02:41:48.389Z,68.80
2023-04-01T02:42:48.436Z,309.60
2023-04-01T02:43:48.371Z,407.00
2023-04-01T02:44:48.363Z,166.20
2023-04-01T02:45:48.364Z,89.60
2023-04-01T02:46:48.375Z,75.50
2023-04-01T02:47:48.424Z,199.70
2023-04-01T02:48:48.377Z,388.60
2023-04-01T02:49:48.321Z,400.20
2023-04-01T02:50:48.301Z,218.70
2023-04-01T02:51:48.295Z,114.20
2023-04-01T02:52:48.327Z,77.20
2023-04-01T02:53:48.288Z,117.30
2023-04-01T02:54:48.254Z,238.40
2023-04-01T02:55:48.242Z,450.90
2023-04-01T02:56:48.249Z,293.30
2023-04-01T02:57:48.266Z,80.90
2023-04-01T02:58:48.211Z,72.10
2023-04-01T02:59:48.246Z,270.60
2023-04-01T03:00:48.246Z,414.90
2023-04-01T03:01:48.170Z,205.50
2023-04-01T03:02:48.255Z,77.90
2023-04-01T03:03:48.170Z,95.30
2023-04-01T03:04:48.150Z,442.60
2023-04-01T03:05:48.123Z,261.80
2023-04-01T03:06:48.120Z,81.30
2023-04-01T03:07:48.168Z,71.30
2023-04-01T03:08:48.087Z,179.90
2023-04-01T03:09:48.073Z,261.80
2023-04-01T03:10:48.064Z,491.60
2023-04-01T03:11:48.053Z,189.90
2023-04-01T03:12:48.096Z,67.40
2023-04-01T03:13:48.052Z,159.10
2023-04-01T03:14:48.041Z,269.80
2023-04-01T03:15:48.005Z,399.40
2023-04-01T03:16:48.043Z,221.00
2023-04-01T03:17:48.062Z,82.90
2023-04-01T03:18:47.981Z,71.60
2023-04-01T03:19:47.971Z,205.10
2023-04-01T03:20:47.963Z,348.00
2023-04-01T03:21:47.932Z,328.70
2023-04-01T03:22:47.984Z,195.70
2023-04-01T03:23:47.947Z,75.60
2023-04-01T03:24:47.906Z,71.50
2023-04-01T03:25:47.899Z,171.70
2023-04-01T03:26:47.891Z,324.10
2023-04-01T03:27:47.908Z,425.20
2023-04-01T03:28:47.858Z,267.10
2023-04-01T03:29:47.895Z,348.10
2023-04-01T03:30:47.857Z,76.00
2023-04-01T03:31:47.821Z,72.20
2023-04-01T03:32:47.953Z,229.80
2023-04-01T03:33:47.807Z,424.40
2023-04-01T03:34:47.776Z,292.70
2023-04-01T03:35:47.773Z,77.50
2023-04-01T03:36:47.760Z,181.30
2023-04-01T03:37:47.804Z,321.90
2023-04-01T03:38:47.750Z,274.80
2023-04-01T03:39:47.737Z,140.80
2023-04-01T03:40:47.747Z,75.00
2023-04-01T03:41:47.720Z,128.60
2023-04-01T03:42:47.781Z,435.70
2023-04-01T03:43:47.687Z,262.90
2023-04-01T03:44:47.676Z,79.50
2023-04-01T03:45:47.868Z,132.40
2023-04-01T03:46:47.651Z,449.50
2023-04-01T03:47:47.731Z,206.90
2023-04-01T03:48:47.663Z,132.30
2023-04-01T03:49:47.655Z,72.10
2023-04-01T03:50:47.612Z,84.50
2023-04-01T03:51:47.607Z,294.10
2023-04-01T03:52:47.637Z,352.90
2023-04-01T03:53:47.576Z,359.70
2023-04-01T03:54:47.581Z,149.60
2023-04-01T03:55:47.553Z,71.40
2023-04-01T03:56:47.559Z,233.10
2023-04-01T03:57:47.574Z,514.60
2023-04-01T03:58:47.524Z,110.10
2023-04-01T03:59:47.506Z,74.20
2023-04-01T04:00:47.499Z,67.80
2023-04-01T04:01:47.471Z,157.30
2023-04-01T04:02:47.594Z,378.30
2023-04-01T04:03:47.614Z,400.00
2023-04-01T04:04:47.531Z,277.70
2023-04-01T04:05:47.433Z,215.00
2023-04-01T04:06:47.464Z,123.70
2023-04-01T04:07:47.424Z,71.80
2023-04-01T04:08:47.462Z,443.00
2023-04-01T04:09:47.407Z,395.70
2023-04-01T04:10:47.493Z,278.50
2023-04-01T04:11:47.399Z,210.30
2023-04-01T04:12:47.396Z,129.30
2023-04-01T04:13:47.391Z,72.90
2023-04-01T04:14:47.339Z,315.50
2023-04-01T04:15:47.379Z,341.80
2023-04-01T04:16:47.323Z,393.70
2023-04-01T04:17:47.317Z,379.10
2023-04-01T04:18:47.341Z,189.00
2023-04-01T04:19:47.293Z,73.10
2023-04-01T04:20:47.277Z,72.50
2023-04-01T04:21:47.274Z,272.00
2023-04-01T04:22:47.263Z,444.30
2023-04-01T04:23:47.287Z,280.70
2023-04-01T04:24:47.223Z,116.90
2023-04-01T04:25:47.209Z,75.00
2023-04-01T04:26:47.222Z,82.50
2023-04-01T04:27:47.192Z,220.70
2023-04-01T04:28:47.212Z,503.20
2023-04-01T04:29:47.172Z,209.30
2023-04-01T04:30:47.241Z,75.80
2023-04-01T04:31:47.207Z,74.40
2023-04-01T04:32:47.188Z,158.60
2023-04-01T04:33:47.160Z,324.00
2023-04-01T04:34:47.122Z,400.20
2023-04-01T04:35:47.187Z,201.10
2023-04-01T04:36:47.110Z,121.90
2023-04-01T04:37:47.074Z,69.70
2023-04-01T04:38:47.135Z,133.30
2023-04-01T04:39:47.058Z,326.80
2023-04-01T04:40:47.045Z,362.40
2023-04-01T04:41:47.060Z,297.70
2023-04-01T04:42:47.020Z,79.00
2023-04-01T04:43:47.144Z,79.80
2023-04-01T04:44:47.019Z,72.70
2023-04-01T04:45:46.989Z,228.90
2023-04-01T04:46:47.010Z,334.10
2023-04-01T04:47:46.983Z,381.90
2023-04-01T04:48:46.999Z,196.00
2023-04-01T04:49:46.935Z,80.60
2023-04-01T04:50:46.935Z,78.20
2023-04-01T04:51:46.910Z,249.60
2023-04-01T04:52:46.918Z,344.20
2023-04-01T04:53:46.949Z,359.00
2023-04-01T04:54:46.883Z,280.30
2023-04-01T04:55:46.865Z,83.00
2023-04-01T04:56:46.903Z,545.90
2023-04-01T04:57:46.855Z,204.50
2023-04-01T04:58:46.877Z,193.80
2023-04-01T04:59:46.817Z,79.80
2023-04-01T05:00:46.815Z,75.80
2023-04-01T05:01:46.943Z,222.60
2023-04-01T05:02:46.869Z,339.40
2023-04-01T05:03:46.875Z,392.30
2023-04-01T05:04:46.792Z,226.40
2023-04-01T05:05:46.755Z,122.80
2023-04-01T05:06:46.767Z,80.00
2023-04-01T05:07:46.732Z,81.60
2023-04-01T05:08:46.765Z,136.30
2023-04-01T05:09:46.758Z,363.60
2023-04-01T05:10:46.695Z,379.00
2023-04-01T05:11:46.686Z,251.50
2023-04-01T05:12:46.678Z,216.90
2023-04-01T05:13:46.711Z,163.50
2023-04-01T05:14:46.660Z,75.10
2023-04-01T05:15:46.638Z,122.20
2023-04-01T05:16:46.679Z,225.00
2023-04-01T05:17:46.634Z,286.70
2023-04-01T05:18:46.663Z,441.00
2023-04-01T05:19:46.598Z,350.80
2023-04-01T05:20:46.584Z,110.40
2023-04-01T05:21:46.603Z,71.10
2023-04-01T05:22:46.566Z,88.60
2023-04-01T05:23:46.587Z,215.20
2023-04-01T05:24:46.543Z,289.00
2023-04-01T05:25:46.525Z,411.00
2023-04-01T05:26:46.531Z,253.20
2023-04-01T05:27:46.492Z,161.80
2023-04-01T05:28:46.546Z,68.60
2023-04-01T05:29:46.469Z,110.50
2023-04-01T05:30:46.512Z,302.70
2023-04-01T05:31:46.484Z,399.70
2023-04-01T05:32:46.506Z,262.50
2023-04-01T05:33:46.496Z,140.70
2023-04-01T05:34:46.434Z,68.70
2023-04-01T05:35:46.450Z,136.70
2023-04-01T05:36:46.406Z,100.30
2023-04-01T05:37:46.404Z,153.50
2023-04-01T05:38:46.437Z,284.70
2023-04-01T05:39:46.360Z,448.80
2023-04-01T05:40:46.365Z,264.10
2023-04-01T05:41:46.344Z,75.90
2023-04-01T05:42:46.352Z,66.10
2023-04-01T05:43:46.370Z,194.50
2023-04-01T05:44:46.299Z,269.10
2023-04-01T05:45:46.325Z,189.70
2023-04-01T05:46:46.310Z,72.30
2023-04-01T05:47:46.325Z,102.40
2023-04-01T05:48:46.315Z,210.50
2023-04-01T05:49:46.253Z,159.80
2023-04-01T05:50:46.245Z,89.70
2023-04-01T05:51:46.240Z,80.00
2023-04-01T05:52:46.218Z,113.30
2023-04-01T05:53:46.253Z,167.00
2023-04-01T05:54:46.191Z,229.20
2023-04-01T05:55:46.167Z,170.50
2023-04-01T05:56:47.619Z,144.40
2023-04-01T05:57:46.169Z,129.00
2023-04-01T05:58:46.191Z,128.70
2023-04-01T05:59:46.131Z,207.00
2023-04-01T06:00:46.823Z,221.60
2023-04-01T06:01:46.122Z,323.50
2023-04-01T06:02:46.160Z,286.00
2023-04-01T06:03:46.302Z,349.80
2023-04-01T06:04:46.188Z,346.90
2023-04-01T06:05:46.095Z,290.90
2023-04-01T06:06:46.063Z,425.60
2023-04-01T06:07:46.042Z,626.50
2023-04-01T06:08:46.134Z,477.70
2023-04-01T06:09:46.021Z,432.30
2023-04-01T06:10:46.049Z,350.90
2023-04-01T06:11:46.025Z,318.20
2023-04-01T06:12:45.987Z,389.30
2023-04-01T06:13:46.046Z,378.40
2023-04-01T06:14:45.959Z,368.10
2023-04-01T06:15:45.978Z,380.60
2023-04-01T06:16:45.971Z,359.40
2023-04-01T06:17:46.855Z,319.40
2023-04-01T06:18:46.010Z,243.10
2023-04-01T06:19:45.905Z,231.10
2023-04-01T06:20:45.924Z,272.60
2023-04-01T06:21:45.896Z,417.50
2023-04-01T06:22:45.885Z,314.90
2023-04-01T06:23:45.915Z,306.60
2023-04-01T06:24:45.842Z,323.60
2023-04-01T06:25:45.839Z,460.20
2023-04-01T06:26:45.827Z,286.20
2023-04-01T06:27:45.810Z,290.10
2023-04-01T06:28:45.870Z,378.30
2023-04-01T06:29:45.800Z,373.20
2023-04-01T06:30:45.772Z,444.10
2023-04-01T06:31:45.770Z,334.40
2023-04-01T06:32:45.836Z,621.20
2023-04-01T06:33:45.830Z,893.90
2023-04-01T06:34:45.762Z,760.60
2023-04-01T06:35:45.782Z,644.50
2023-04-01T06:36:45.744Z,813.80
2023-04-01T06:37:45.770Z,639.90
2023-04-01T06:38:45.897Z,651.80
2023-04-01T06:39:45.702Z,875.20
2023-04-01T06:40:45.677Z,197.90
2023-04-01T06:41:45.678Z,423.90
2023-04-01T06:42:45.660Z,999.90
2023-04-01T06:43:45.707Z,431.70
2023-04-01T06:44:45.656Z,999.90
2023-04-01T06:45:45.652Z,999.90
2023-04-01T06:46:45.615Z,999.90
2023-04-01T06:47:45.810Z,999.90
2023-04-01T06:48:45.665Z,999.90
2023-04-01T06:49:45.578Z,999.90
2023-04-01T06:50:45.568Z,999.90
2023-04-01T06:51:45.552Z,999.90
2023-04-01T06:52:45.525Z,999.90
2023-04-01T06:53:45.655Z,999.90
2023-04-01T06:54:45.509Z,193.00
2023-04-01T06:55:45.490Z,228.50
2023-04-01T06:56:45.491Z,287.10
2023-04-01T06:57:45.488Z,321.40
2023-04-01T06:58:45.525Z,350.40
2023-04-01T06:59:45.450Z,999.90
2023-04-01T07:00:45.456Z,999.90
2023-04-01T07:01:45.511Z,999.90
2023-04-01T07:02:45.449Z,999.90
2023-04-01T07:03:45.423Z,999.90
2023-04-01T07:04:45.488Z,999.90
2023-04-01T07:05:45.441Z,999.90
2023-04-01T07:06:45.366Z,999.90
2023-04-01T07:07:45.378Z,999.90
2023-04-01T07:08:45.348Z,242.80
2023-04-01T07:09:45.399Z,999.90
2023-04-01T07:10:45.324Z,61.30
2023-04-01T07:11:45.602Z,999.90
2023-04-01T07:12:45.315Z,999.90
2023-04-01T07:13:45.295Z,999.90
2023-04-01T07:14:45.318Z,999.90
2023-04-01T07:15:45.275Z,999.90
2023-04-01T07:16:45.250Z,999.90
2023-04-01T07:17:45.284Z,999.90
2023-04-01T07:18:45.232Z,999.90
2023-04-01T07:19:45.282Z,999.90
2023-04-01T07:20:45.219Z,999.90
2023-04-01T07:21:45.202Z,999.90
2023-04-01T07:22:45.199Z,999.90
2023-04-01T07:23:45.181Z,999.90
2023-04-01T07:24:45.203Z,999.90
2023-04-01T07:25:45.153Z,999.90
2023-04-01T07:26:45.632Z,999.90
2023-04-01T07:27:45.192Z,999.90
2023-04-01T07:28:45.133Z,999.90
2023-04-01T07:29:45.149Z,999.90
2023-04-01T07:30:45.139Z,999.90
2023-04-01T07:31:45.076Z,999.90
2023-04-01T07:32:45.091Z,999.90
2023-04-01T07:33:45.069Z,999.90
2023-04-01T07:34:45.099Z,999.90
2023-04-01T07:35:45.064Z,999.90
2023-04-01T07:36:45.039Z,999.90
2023-04-01T07:37:45.018Z,999.90
2023-04-01T07:38:45.018Z,999.90
2023-04-01T07:39:45.035Z,999.90
2023-04-01T07:40:44.983Z,999.90
2023-04-01T07:41:44.975Z,999.90
2023-04-01T07:42:44.955Z,999.90
2023-04-01T07:43:44.971Z,999.90
2023-04-01T07:44:44.983Z,999.90
2023-04-01T07:45:44.962Z,999.90
2023-04-01T07:46:44.991Z,999.90
2023-04-01T07:47:44.919Z,999.90
2023-04-01T07:48:44.913Z,999.90
2023-04-01T07:49:44.910Z,999.90
2023-04-01T07:50:45.968Z,999.90
2023-04-01T07:51:44.852Z,999.90
2023-04-01T07:52:44.847Z,999.90
2023-04-01T07:53:44.833Z,999.90
2023-04-01T07:54:44.874Z,999.90
2023-04-01T07:55:44.805Z,999.90
2023-04-01T07:56:44.884Z,999.90
2023-04-01T07:57:44.800Z,195.80
2023-04-01T07:58:44.766Z,999.90
2023-04-01T07:59:44.799Z,999.90
2023-04-01T08:00:44.759Z,999.90
2023-04-01T08:01:44.747Z,654.40
2023-04-01T08:02:44.790Z,999.90
2023-04-01T08:03:44.827Z,999.90
2023-04-01T08:04:44.771Z,283.20
2023-04-01T08:05:45.662Z,999.90
2023-04-01T08:06:44.696Z,999.90
2023-04-01T08:07:44.675Z,514.00
2023-04-01T08:08:44.672Z,999.90
2023-04-01T08:09:44.680Z,999.90
2023-04-01T08:10:44.612Z,333.70
2023-04-01T08:11:44.602Z,999.90
2023-04-01T08:12:44.600Z,999.90
2023-04-01T08:13:44.603Z,674.40
2023-04-01T08:14:44.643Z,999.90
2023-04-01T08:15:44.601Z,999.90
2023-04-01T08:16:44.630Z,999.90
2023-04-01T08:17:44.543Z,999.90
2023-04-01T08:18:44.538Z,999.90
2023-04-01T08:19:44.562Z,999.90
2023-04-01T08:20:44.525Z,999.90
2023-04-01T08:21:44.507Z,999.90
2023-04-01T08:22:44.516Z,999.90
2023-04-01T08:23:44.500Z,999.90
2023-04-01T08:24:47.536Z,999.90
2023-04-01T08:25:44.472Z,999.90
2023-04-01T08:26:44.447Z,999.90
2023-04-01T08:27:44.440Z,999.90
2023-04-01T08:28:44.417Z,999.90
2023-04-01T08:29:44.464Z,999.90
2023-04-01T08:30:44.393Z,999.90
2023-04-01T08:31:44.402Z,999.90
2023-04-01T08:32:44.439Z,999.90
2023-04-01T08:33:44.359Z,999.90
2023-04-01T08:34:44.396Z,999.90
2023-04-01T08:35:44.549Z,999.90
2023-04-01T08:36:44.342Z,999.90
2023-04-01T08:37:44.302Z,999.90
2023-04-01T08:38:44.292Z,999.90
2023-04-01T08:39:44.333Z,999.90
2023-04-01T08:40:44.275Z,999.90
2023-04-01T08:41:44.281Z,999.90
2023-04-01T08:42:44.247Z,999.90
2023-04-01T08:43:44.252Z,999.90
2023-04-01T08:44:44.264Z,999.90
2023-04-01T08:45:44.243Z,999.90
2023-04-01T08:46:44.231Z,999.90
2023-04-01T08:47:44.256Z,999.90
2023-04-01T08:48:44.213Z,999.90
2023-04-01T08:49:44.237Z,999.90
2023-04-01T08:50:44.155Z,999.90
2023-04-01T08:51:44.173Z,999.90
2023-04-01T08:52:44.140Z,999.90
2023-04-01T08:53:44.149Z,999.90
2023-04-01T08:54:44.171Z,999.90
2023-04-01T08:55:44.116Z,999.90
2023-04-01T08:56:44.086Z,999.90
2023-04-01T08:57:44.077Z,999.90
2023-04-01T08:58:44.079Z,999.90
2023-04-01T08:59:44.113Z,121.40
2023-04-01T09:00:44.069Z,34.30
2023-04-01T09:01:44.048Z,22.30
2023-04-01T09:02:44.184Z,21.40
2023-04-01T09:03:44.211Z,18.80
2023-04-01T09:04:44.053Z,24.80
2023-04-01T09:05:44.013Z,20.70
2023-04-01T09:06:43.975Z,19.20
2023-04-01T09:07:44.020Z,22.70
2023-04-01T09:08:43.964Z,21.00
2023-04-01T09:09:44.012Z,23.40
2023-04-01T09:10:43.952Z,26.60
2023-04-01T09:11:43.930Z,25.70
2023-04-01T09:12:43.918Z,25.60
2023-04-01T09:13:43.897Z,23.60
2023-04-01T09:14:43.938Z,17.10
2023-04-01T09:15:43.967Z,14.00
2023-04-01T09:16:43.869Z,12.80
2023-04-01T09:17:43.910Z,332.40
2023-04-01T09:18:43.851Z,79.70
2023-04-01T09:19:43.871Z,14.80
2023-04-01T09:20:43.820Z,212.50
2023-04-01T09:21:43.802Z,367.20
2023-04-01T09:22:43.813Z,960.10
2023-04-01T09:23:43.791Z,999.90
2023-04-01T09:24:43.832Z,999.90
2023-04-01T09:25:43.775Z,999.90
2023-04-01T09:26:43.761Z,999.90
2023-04-01T09:27:43.743Z,999.90
2023-04-01T09:28:43.722Z,999.90
2023-04-01T09:29:43.756Z,999.90
2023-04-01T09:30:43.689Z,999.90
2023-04-01T09:31:43.842Z,999.90
2023-04-01T09:32:43.744Z,999.90
2023-04-01T09:33:43.684Z,999.90
2023-04-01T09:34:43.705Z,999.90
2023-04-01T09:35:43.694Z,999.90
2023-04-01T09:36:43.646Z,999.90
2023-04-01T09:37:43.620Z,999.90
2023-04-01T09:38:43.625Z,24.40
2023-04-01T09:39:43.677Z,525.70
2023-04-01T09:40:43.575Z,270.70
2023-04-01T09:41:43.568Z,276.80
2023-04-01T09:42:43.580Z,243.60
2023-04-01T09:43:43.576Z,262.10
2023-04-01T09:44:43.616Z,496.40
2023-04-01T09:45:43.533Z,262.20
2023-04-01T09:46:43.704Z,999.90
2023-04-01T09:47:43.549Z,897.50
2023-04-01T09:48:43.523Z,222.90
2023-04-01T09:49:43.548Z,802.10
2023-04-01T09:50:43.497Z,603.50
2023-04-01T09:51:43.476Z,999.90
2023-04-01T09:52:45.335Z,320.80
2023-04-01T09:53:43.462Z,999.90
2023-04-01T09:54:43.496Z,935.70
2023-04-01T09:55:43.445Z,757.70
2023-04-01T09:56:43.413Z,369.10
2023-04-01T09:57:43.392Z,999.90
2023-04-01T09:58:44.217Z,778.20
2023-04-01T09:59:43.426Z,277.70
2023-04-01T10:00:43.383Z,259.70
2023-04-01T10:01:43.399Z,230.80
2023-04-01T10:02:43.521Z,454.80
2023-04-01T10:03:43.346Z,999.90
2023-04-01T10:04:43.372Z,945.30
2023-04-01T10:05:43.375Z,203.60
2023-04-01T10:06:43.285Z,179.70
2023-04-01T10:07:43.294Z,999.90
2023-04-01T10:08:43.304Z,982.50
2023-04-01T10:09:43.341Z,464.50
2023-04-01T10:10:43.251Z,890.20
2023-04-01T10:11:43.239Z,79.80
2023-04-01T10:12:43.214Z,843.40
2023-04-01T10:13:43.224Z,563.70
2023-04-01T10:14:43.191Z,251.60
2023-04-01T10:15:43.251Z,802.30
2023-04-01T10:16:43.255Z,752.60
2023-04-01T10:17:43.186Z,999.90
2023-04-01T10:18:43.168Z,285.20
2023-04-01T10:19:43.157Z,496.30
2023-04-01T10:20:43.208Z,999.90
2023-04-01T10:21:43.140Z,999.90
2023-04-01T10:22:43.119Z,999.90
2023-04-01T10:23:43.097Z,999.90
2023-04-01T10:24:43.088Z,999.90
2023-04-01T10:25:43.134Z,999.90
2023-04-01T10:26:43.069Z,999.90
2023-04-01T10:27:43.070Z,999.90
2023-04-01T10:28:43.062Z,999.90
2023-04-01T10:29:43.031Z,999.90
2023-04-01T10:30:43.069Z,999.90
2023-04-01T10:31:43.105Z,999.90
2023-04-01T10:32:43.622Z,999.90
2023-04-01T10:33:42.999Z,999.90
2023-04-01T10:34:42.988Z,999.90
2023-04-01T10:35:43.008Z,999.90
2023-04-01T10:36:42.968Z,999.90
2023-04-01T10:37:42.932Z,165.50
2023-04-01T10:38:42.973Z,17.80
2023-04-01T10:39:42.908Z,14.30
2023-04-01T10:40:42.962Z,17.20
2023-04-01T10:41:42.890Z,16.90
2023-04-01T10:42:42.861Z,12.40
2023-04-01T10:43:42.870Z,9.90
2023-04-01T10:44:42.869Z,9.30
2023-04-01T10:45:42.934Z,10.10
2023-04-01T10:46:42.829Z,9.60
2023-04-01T10:47:42.878Z,9.80
2023-04-01T10:48:42.812Z,10.10
2023-04-01T10:49:42.790Z,9.90
2023-04-01T10:50:42.825Z,8.80
2023-04-01T10:51:42.765Z,10.00
2023-04-01T10:52:42.789Z,9.60
2023-04-01T10:53:42.757Z,8.70
2023-04-01T10:54:42.738Z,7.90
2023-04-01T10:55:42.764Z,7.50
2023-04-01T10:56:42.703Z,9.00
2023-04-01T10:57:42.707Z,10.40
2023-04-01T10:58:42.704Z,15.20
2023-04-01T10:59:42.686Z,16.10
2023-04-01T11:00:42.728Z,18.10
2023-04-01T11:01:42.694Z,885.90
2023-04-01T11:02:42.781Z,11.30
2023-04-01T11:03:42.655Z,14.10
2023-04-01T11:04:42.644Z,35.10
2023-04-01T11:05:42.669Z,562.80
2023-04-01T11:06:42.613Z,431.10
2023-04-01T11:07:43.197Z,999.90
2023-04-01T11:08:42.578Z,999.90
2023-04-01T11:09:42.567Z,864.40
2023-04-01T11:10:42.602Z,245.60
2023-04-01T11:11:42.537Z,25.50
2023-04-01T11:12:42.524Z,25.30
2023-04-01T11:13:42.526Z,16.50
2023-04-01T11:14:42.546Z,97.40
2023-04-01T11:15:42.560Z,567.30
2023-04-01T11:16:42.509Z,13.30
2023-04-01T11:17:42.508Z,13.40
2023-04-01T11:18:42.466Z,13.50
2023-04-01T11:19:42.446Z,14.20
2023-04-01T11:20:42.491Z,13.20
2023-04-01T11:21:42.439Z,11.60
2023-04-01T11:22:42.413Z,9.00
2023-04-01T11:23:44.009Z,9.30
2023-04-01T11:24:42.391Z,9.90
2023-04-01T11:25:42.420Z,9.50
2023-04-01T11:26:42.395Z,7.70
2023-04-01T11:27:42.362Z,8.70
2023-04-01T11:28:42.344Z,8.20
2023-04-01T11:29:53.191Z,8.50
2023-04-01T11:30:43.367Z,8.00
2023-04-01T11:31:42.326Z,7.90
2023-04-01T11:32:42.363Z,8.40
2023-04-01T11:33:42.288Z,7.40
2023-04-01T11:34:42.279Z,7.70
2023-04-01T11:35:42.307Z,7.60
2023-04-01T11:36:42.282Z,6.90
2023-04-01T11:37:42.244Z,7.30
2023-04-01T11:38:42.249Z,7.30
2023-04-01T11:39:42.254Z,7.10
2023-04-01T11:40:42.290Z,7.60
2023-04-01T11:41:42.196Z,7.40
2023-04-01T11:42:42.174Z,7.80
2023-04-01T11:43:42.156Z,8.20
2023-04-01T11:44:42.153Z,8.10
2023-04-01T11:45:42.227Z,8.20
2023-04-01T11:46:42.275Z,8.30
2023-04-01T11:47:42.168Z,8.10
2023-04-01T11:48:43.369Z,8.00
2023-04-01T11:49:42.132Z,8.60
2023-04-01T11:50:42.126Z,7.80
2023-04-01T11:51:42.079Z,7.70
2023-04-01T11:52:42.067Z,8.80
2023-04-01T11:53:42.068Z,7.50
2023-04-01T11:54:42.159Z,7.90
2023-04-01T11:55:42.086Z,8.40
2023-04-01T11:56:42.035Z,8.50
2023-04-01T11:57:42.006Z,8.00
2023-04-01T11:58:42.024Z,7.30
2023-04-01T11:59:42.014Z,8.00
2023-04-01T12:00:42.038Z,7.70
2023-04-01T12:01:41.977Z,8.10
2023-04-01T12:02:42.092Z,7.90
2023-04-01T12:03:42.052Z,8.80
2023-04-01T12:04:41.950Z,8.40
2023-04-01T12:05:41.996Z,7.90
2023-04-01T12:06:41.925Z,8.40
2023-04-01T12:07:41.963Z,8.50
2023-04-01T12:08:41.898Z,7.90
2023-04-01T12:09:41.869Z,8.10
2023-04-01T12:10:41.921Z,7.60
2023-04-01T12:11:41.863Z,7.60
2023-04-01T12:12:50.748Z,7.80
2023-04-01T12:13:42.860Z,8.20
2023-04-01T12:14:41.838Z,7.30
2023-04-01T12:15:41.847Z,7.70
2023-04-01T12:16:41.836Z,7.10
2023-04-01T12:17:41.834Z,7.90
2023-04-01T12:18:41.795Z,7.50
2023-04-01T12:19:41.817Z,7.10
2023-04-01T12:20:41.808Z,7.30
2023-04-01T12:21:41.778Z,6.30
2023-04-01T12:22:41.772Z,6.50
2023-04-01T12:23:41.712Z,6.40
2023-04-01T12:24:41.710Z,6.90
2023-04-01T12:25:41.743Z,6.90
2023-04-01T12:26:41.690Z,7.00
2023-04-01T12:27:41.680Z,10.10
2023-04-01T12:28:41.660Z,6.40
2023-04-01T12:29:41.639Z,7.10
2023-04-01T12:30:41.716Z,7.50
2023-04-01T12:31:41.681Z,7.70
2023-04-01T12:32:41.758Z,8.10
2023-04-01T12:33:41.605Z,7.20
2023-04-01T12:34:41.570Z,7.20
2023-04-01T12:35:41.625Z,8.10
2023-04-01T12:36:41.546Z,7.50
2023-04-01T12:37:41.564Z,7.30
2023-04-01T12:38:41.551Z,7.20
2023-04-01T12:39:41.547Z,6.90
2023-04-01T12:40:41.607Z,7.10